General Aviation Weather

Text Reports

Enter one or more of the following location identifiers separated by a space:

Zip Code, Four-Character ICAO or Three-Character IATA airport codes.

METAR - Aviation Routine Weather Report
RJGG - Nagoya / Chubu,
Updated at 11:30 AM GMT on January 25, 2015 (8:30 PM JST):
METAR RJGG 251130Z 00000KT 9999 FEW020 BKN/// 08/04 Q1028 BECMG 07006KT
TAF - Terminal Area Forecast
RJGG - Nagoya / Chubu,
Updated at 11:30 AM GMT on January 25, 2015 (8:30 PM JST):
No TAF is currently available for this location.
Decoded:
No decoded TAF is available.
PIREP - Pilot Weather Report
RJGG - Nagoya / Chubu,
Updated at 11:30 AM GMT on January 25, 2015 (8:30 PM JST):
No PIREP is currently available for this location.
AIRMET - Airmens Meteorological Information
RJGG - Nagoya / Chubu,
Updated at 11:30 AM GMT on January 25, 2015 (8:30 PM JST):
No AIRMET is currently available for this location.
SIGMET - Significant Meteorological Information
RJGG - Nagoya / Chubu,
Updated at 11:30 AM GMT on January 25, 2015 (8:30 PM JST):
No SIGMET is currently available for this location.
NOTAM - Notice to Airmen
RJGG - Nagoya / Chubu,
Updated at 11:30 AM GMT on January 25, 2015 (8:30 PM JST):
No NOTAM is currently available for this location.
Forecast Area
RJGG - Nagoya / Chubu,
Updated at 11:30 AM GMT on January 25, 2015 (8:30 PM JST):
No NOTAM is currently available for this location.
Aviation Weather Maps